QGU weather

Gifu Airport
Gifu, Gifu Prefecture, Japan

Public forecast

Using degrees Celsius for public forecast. Weather courtesy of forecast.io.

METAR (pilot weather report)

Retrieved 2019/07/23 04:03 UTC (4 minutes ago):

RJNG 230403Z 25003KT 190V310 9999 FEW030 SCT080 BKN130 32/22 Q1004 RMK 2CU030 4AC080 5AC130 A2965

TAF (pilot weather forecast)

Forecast is more than 12 hours old.

Closest forecast is Chubu Centrair International Airport, 32.3 nm (59.9 km) S. Retrieved 2019/07/22 00:30 UTC (1 day ago):

TAF RJGG 222305Z 2300/2406 30004KT 9999 FEW010 SCT030 BECMG 2300/2302 22005KT TEMPO 2308/2310 FEW010 BKN020 FEW025CB BECMG 2312/2315 33006KT BECMG 2400/2403 21006KT